createdAt,value
2018-05-27T00:01:53.752Z,15.25
2018-05-27T00:04:19.489Z,15.15
2018-05-27T00:06:45.204Z,15.19
2018-05-27T00:09:10.940Z,15.13
2018-05-27T00:11:36.656Z,15.22
2018-05-27T00:14:02.404Z,15.20
2018-05-27T00:16:28.119Z,15.26
2018-05-27T00:18:53.868Z,15.30
2018-05-27T00:21:19.588Z,15.54
2018-05-27T00:23:45.335Z,15.58
2018-05-27T00:26:11.061Z,15.46
2018-05-27T00:28:36.796Z,15.41
2018-05-27T00:31:02.532Z,15.55
2018-05-27T00:33:28.328Z,15.75
2018-05-27T00:35:54.064Z,15.74
2018-05-27T00:38:19.784Z,15.75
2018-05-27T00:40:45.517Z,15.69
2018-05-27T00:43:11.248Z,15.76
2018-05-27T00:45:36.980Z,15.46
2018-05-27T00:48:02.713Z,15.28
2018-05-27T00:50:28.456Z,15.23
2018-05-27T00:52:54.173Z,15.36
2018-05-27T00:55:19.912Z,15.43
2018-05-27T00:57:45.635Z,15.37
2018-05-27T01:00:11.403Z,15.19
2018-05-27T01:02:37.112Z,15.08
2018-05-27T01:05:02.852Z,15.03
2018-05-27T01:07:28.576Z,14.98
2018-05-27T01:09:54.309Z,14.95
2018-05-27T01:12:20.044Z,14.92
2018-05-27T01:14:45.780Z,14.88
2018-05-27T01:17:11.551Z,14.87
2018-05-27T01:19:37.297Z,14.78
2018-05-27T01:22:03.037Z,14.71
2018-05-27T01:24:28.773Z,14.72
2018-05-27T01:26:54.508Z,14.67
2018-05-27T01:29:20.253Z,14.63
2018-05-27T01:31:45.979Z,14.60
2018-05-27T01:34:11.724Z,14.56
2018-05-27T01:36:37.735Z,14.64
2018-05-27T01:39:04.363Z,14.71
2018-05-27T01:41:30.117Z,14.76
2018-05-27T01:43:55.854Z,14.56
2018-05-27T01:46:21.601Z,14.55
2018-05-27T01:48:47.332Z,14.75
2018-05-27T01:51:13.080Z,14.83
2018-05-27T01:53:38.812Z,14.59
2018-05-27T01:56:04.564Z,14.36
2018-05-27T01:58:30.289Z,14.34
2018-05-27T02:00:56.027Z,14.47
2018-05-27T02:03:21.834Z,14.34
2018-05-27T02:05:47.593Z,14.29
2018-05-27T02:08:13.347Z,14.30
2018-05-27T02:10:39.557Z,14.33
2018-05-27T02:13:05.420Z,14.29
2018-05-27T02:15:31.171Z,14.24
2018-05-27T02:17:56.898Z,14.29
2018-05-27T02:20:22.962Z,14.40
2018-05-27T02:22:48.695Z,14.44
2018-05-27T02:25:14.431Z,14.48
2018-05-27T02:27:40.454Z,14.49
2018-05-27T02:30:06.212Z,14.42
2018-05-27T02:32:31.930Z,14.51
2018-05-27T02:34:57.668Z,14.53
2018-05-27T02:37:23.392Z,14.49
2018-05-27T02:39:49.116Z,14.52
2018-05-27T02:42:14.856Z,14.52
2018-05-27T02:44:40.576Z,14.59
2018-05-27T02:47:06.347Z,14.55
2018-05-27T02:49:32.064Z,14.62
2018-05-27T02:51:58.624Z,14.72
2018-05-27T02:54:24.360Z,14.53
2018-05-27T02:56:50.088Z,14.65
2018-05-27T02:59:16.101Z,14.68
2018-05-27T03:01:41.882Z,14.77
2018-05-27T03:04:07.628Z,14.84
2018-05-27T03:06:33.392Z,14.87
2018-05-27T03:08:59.118Z,14.85
2018-05-27T03:11:24.856Z,14.83
2018-05-27T03:13:50.581Z,15.04
2018-05-27T03:16:16.503Z,15.10
2018-05-27T03:18:42.233Z,15.04
2018-05-27T03:21:07.965Z,15.16
2018-05-27T03:23:33.683Z,14.86
2018-05-27T03:25:59.423Z,14.93
2018-05-27T03:28:25.141Z,15.14
2018-05-27T03:30:50.879Z,15.09
2018-05-27T03:33:16.603Z,15.06
2018-05-27T03:35:42.336Z,15.13
2018-05-27T03:38:08.079Z,15.07
2018-05-27T03:40:33.816Z,15.12
2018-05-27T03:42:59.528Z,15.12
2018-05-27T03:45:25.257Z,15.11
2018-05-27T03:47:50.977Z,15.15
2018-05-27T03:50:16.704Z,14.97
2018-05-27T03:52:42.444Z,15.05
2018-05-27T03:55:08.163Z,15.10
2018-05-27T03:57:33.888Z,15.08
2018-05-27T03:59:59.616Z,15.03
2018-05-27T04:02:25.364Z,15.02
2018-05-27T04:05:03.586Z,14.98
2018-05-27T04:07:41.858Z,15.08
2018-05-27T04:10:07.603Z,15.02
2018-05-27T04:12:33.348Z,14.97
2018-05-27T04:14:59.079Z,14.91
2018-05-27T04:17:24.836Z,14.91
2018-05-27T04:19:50.575Z,14.94
2018-05-27T04:22:16.316Z,14.98
2018-05-27T04:24:42.045Z,15.14
2018-05-27T04:27:07.796Z,15.27
2018-05-27T04:29:33.543Z,15.11
2018-05-27T04:31:59.279Z,15.20
2018-05-27T04:34:25.028Z,15.21
2018-05-27T04:36:50.769Z,15.17
2018-05-27T04:39:16.501Z,15.11
2018-05-27T04:41:42.249Z,15.21
2018-05-27T04:44:07.983Z,15.26
2018-05-27T04:46:33.721Z,15.28
2018-05-27T04:48:59.450Z,15.43
2018-05-27T04:51:25.205Z,15.53
2018-05-27T04:53:50.944Z,15.49
2018-05-27T04:56:16.696Z,15.70
2018-05-27T04:58:42.432Z,15.72
2018-05-27T05:01:08.166Z,15.61
2018-05-27T05:03:33.911Z,15.83
2018-05-27T05:05:59.635Z,15.79
2018-05-27T05:08:25.389Z,15.77
2018-05-27T05:10:51.125Z,15.89
2018-05-27T05:13:16.861Z,16.00
2018-05-27T05:15:42.600Z,16.00
2018-05-27T05:18:08.368Z,16.02
2018-05-27T05:20:34.104Z,15.96
2018-05-27T05:22:59.847Z,16.26
2018-05-27T05:25:25.568Z,16.17
2018-05-27T05:27:51.315Z,16.26
2018-05-27T05:30:17.052Z,16.34
2018-05-27T05:32:42.810Z,16.41
2018-05-27T05:35:08.535Z,16.49
2018-05-27T05:37:34.280Z,16.48
2018-05-27T05:40:00.018Z,16.50
2018-05-27T05:42:25.768Z,16.54
2018-05-27T05:44:51.501Z,16.55
2018-05-27T05:47:17.248Z,16.49
2018-05-27T05:49:42.968Z,16.36
2018-05-27T05:52:08.722Z,16.30
2018-05-27T05:54:34.460Z,16.48
2018-05-27T05:57:00.200Z,16.52
2018-05-27T05:59:25.935Z,16.45
2018-05-27T06:01:51.685Z,16.51
2018-05-27T06:04:17.419Z,16.40
2018-05-27T06:06:43.148Z,16.64
2018-05-27T06:09:08.900Z,16.56
2018-05-27T06:11:34.645Z,16.70
2018-05-27T06:14:00.384Z,16.77
2018-05-27T06:16:26.126Z,16.94
2018-05-27T06:18:51.891Z,16.89
2018-05-27T06:21:17.632Z,16.50
2018-05-27T06:23:43.384Z,16.80
2018-05-27T06:26:09.117Z,16.98
2018-05-27T06:28:34.865Z,17.10
2018-05-27T06:31:00.595Z,17.29
2018-05-27T06:33:26.343Z,17.31
2018-05-27T06:35:52.084Z,17.33
2018-05-27T06:38:17.838Z,17.46
2018-05-27T06:40:43.571Z,17.43
2018-05-27T06:43:09.320Z,17.51
2018-05-27T06:45:35.067Z,17.66
2018-05-27T06:48:00.809Z,17.69
2018-05-27T06:50:26.610Z,17.47
2018-05-27T06:52:52.358Z,17.40
2018-05-27T06:55:18.087Z,17.37
2018-05-27T06:57:43.827Z,17.17
2018-05-27T07:00:09.564Z,17.40
2018-05-27T07:02:35.299Z,17.69
2018-05-27T07:05:01.042Z,17.84
2018-05-27T07:07:26.788Z,18.10
2018-05-27T07:09:52.520Z,18.35
2018-05-27T07:12:18.261Z,18.48
2018-05-27T07:14:44.012Z,18.74
2018-05-27T07:17:09.796Z,19.14
2018-05-27T07:19:35.504Z,19.01
2018-05-27T07:22:01.232Z,18.88
2018-05-27T07:24:26.976Z,18.81
2018-05-27T07:26:52.717Z,18.62
2018-05-27T07:29:18.475Z,18.29
2018-05-27T07:31:44.224Z,18.45
2018-05-27T07:34:09.967Z,17.91
2018-05-27T07:36:35.715Z,17.81
2018-05-27T07:39:01.462Z,18.39
2018-05-27T07:41:27.200Z,18.44
2018-05-27T07:43:52.959Z,18.62
2018-05-27T07:46:18.700Z,18.63
2018-05-27T07:48:44.435Z,18.54
2018-05-27T07:51:10.171Z,18.50
2018-05-27T07:53:35.916Z,18.41
2018-05-27T07:56:01.673Z,18.52
2018-05-27T07:58:27.458Z,18.60
2018-05-27T08:00:53.165Z,18.51
2018-05-27T08:03:18.907Z,18.79
2018-05-27T08:05:44.641Z,18.66
2018-05-27T08:08:10.405Z,18.72
2018-05-27T08:10:36.129Z,18.78
2018-05-27T08:13:01.889Z,19.01
2018-05-27T08:15:27.627Z,18.51
2018-05-27T08:17:53.526Z,18.98
2018-05-27T08:20:19.284Z,18.74
2018-05-27T08:22:45.022Z,19.21
2018-05-27T08:25:10.764Z,19.16
2018-05-27T08:27:36.517Z,19.21
2018-05-27T08:30:02.275Z,19.24
2018-05-27T08:32:28.009Z,19.13
2018-05-27T08:34:53.777Z,19.21
2018-05-27T08:37:19.512Z,19.58
2018-05-27T08:39:45.285Z,19.06
2018-05-27T08:42:11.031Z,19.26
2018-05-27T08:44:36.786Z,19.45
2018-05-27T08:47:02.517Z,19.33
2018-05-27T08:49:28.267Z,19.15
2018-05-27T08:51:54.013Z,20.11
2018-05-27T08:54:19.763Z,19.81
2018-05-27T08:56:45.496Z,19.64
2018-05-27T08:59:11.256Z,19.88
2018-05-27T09:01:36.975Z,19.59
2018-05-27T09:04:02.730Z,20.63
2018-05-27T09:06:28.474Z,19.99
2018-05-27T09:08:54.292Z,20.57
2018-05-27T09:11:19.986Z,19.69
2018-05-27T09:13:46.520Z,19.95
2018-05-27T09:16:12.258Z,20.16
2018-05-27T09:18:37.999Z,20.97
2018-05-27T09:21:03.729Z,20.44
2018-05-27T09:23:29.465Z,20.76
2018-05-27T09:25:55.235Z,20.15
2018-05-27T09:28:20.961Z,21.51
2018-05-27T09:30:46.710Z,20.57
2018-05-27T09:33:12.444Z,20.73
2018-05-27T09:35:38.181Z,20.43
2018-05-27T09:38:03.924Z,20.88
2018-05-27T09:40:29.659Z,21.30
2018-05-27T09:42:55.388Z,21.21
2018-05-27T09:45:21.171Z,21.05
2018-05-27T09:47:48.477Z,21.77
2018-05-27T09:50:14.227Z,21.26
2018-05-27T09:52:39.954Z,21.37
2018-05-27T09:55:06.571Z,21.04
2018-05-27T09:57:32.299Z,20.98
2018-05-27T09:59:58.043Z,21.25
2018-05-27T10:02:23.780Z,20.45
2018-05-27T10:04:49.548Z,20.70
2018-05-27T10:07:15.281Z,20.88
2018-05-27T10:09:41.032Z,22.16
2018-05-27T10:12:06.785Z,21.42
2018-05-27T10:14:32.531Z,22.28
2018-05-27T10:16:58.273Z,22.43
2018-05-27T10:19:24.033Z,21.62
2018-05-27T10:21:49.773Z,22.11
2018-05-27T10:24:15.530Z,22.83
2018-05-27T10:26:41.275Z,23.66
2018-05-27T10:29:07.014Z,22.54
2018-05-27T10:31:32.744Z,22.84
2018-05-27T10:33:58.475Z,21.37
2018-05-27T10:36:24.208Z,22.16
2018-05-27T10:38:49.946Z,22.08
2018-05-27T10:41:15.824Z,21.66
2018-05-27T10:43:41.579Z,21.01
2018-05-27T10:46:07.317Z,20.81
2018-05-27T10:48:33.049Z,20.74
2018-05-27T10:50:59.121Z,21.73
2018-05-27T10:53:24.851Z,22.24
2018-05-27T10:55:50.593Z,21.72
2018-05-27T10:58:16.336Z,20.33
2018-05-27T11:00:42.079Z,20.93
2018-05-27T11:03:07.810Z,21.27
2018-05-27T11:05:33.561Z,20.54
2018-05-27T11:07:59.285Z,21.02
2018-05-27T11:10:25.029Z,21.83
2018-05-27T11:12:50.755Z,21.99
2018-05-27T11:15:16.499Z,21.96
2018-05-27T11:17:42.267Z,21.24
2018-05-27T11:20:08.006Z,21.11
2018-05-27T11:22:33.729Z,21.17
2018-05-27T11:24:59.476Z,20.69
2018-05-27T11:27:25.220Z,20.93
2018-05-27T11:29:51.003Z,20.85
2018-05-27T11:32:16.700Z,22.05
2018-05-27T11:34:42.444Z,20.54
2018-05-27T11:37:08.185Z,21.31
2018-05-27T11:39:33.913Z,21.34
2018-05-27T11:41:59.655Z,20.69
2018-05-27T11:44:25.393Z,20.84
2018-05-27T11:46:51.136Z,20.63
2018-05-27T11:49:16.902Z,20.55
2018-05-27T11:51:42.636Z,21.75
2018-05-27T11:54:08.355Z,21.91
2018-05-27T11:56:34.096Z,19.77
2018-05-27T11:58:59.837Z,20.50
2018-05-27T12:01:25.565Z,21.22
2018-05-27T12:03:51.301Z,21.25
2018-05-27T12:06:17.041Z,22.30
2018-05-27T12:08:42.764Z,21.66
2018-05-27T12:11:08.508Z,21.57
2018-05-27T12:13:34.264Z,19.92
2018-05-27T12:16:00.017Z,20.10
2018-05-27T12:18:25.744Z,20.46
2018-05-27T12:20:51.498Z,21.78
2018-05-27T12:23:17.251Z,19.77
2018-05-27T12:25:43.008Z,20.10
2018-05-27T12:28:08.736Z,20.49
2018-05-27T12:30:34.505Z,21.03
2018-05-27T12:33:00.241Z,20.63
2018-05-27T12:35:25.997Z,20.36
2018-05-27T12:37:51.726Z,20.85
2018-05-27T12:40:17.500Z,20.75
2018-05-27T12:42:43.233Z,20.59
2018-05-27T12:45:08.977Z,20.37
2018-05-27T12:47:34.721Z,19.99
2018-05-27T12:50:00.464Z,19.55
2018-05-27T12:52:26.211Z,19.76
2018-05-27T12:54:51.945Z,20.75
2018-05-27T12:57:17.711Z,20.39
2018-05-27T12:59:43.448Z,19.65
2018-05-27T13:02:09.222Z,20.58
2018-05-27T13:04:34.966Z,20.22
2018-05-27T13:07:00.716Z,20.97
2018-05-27T13:09:26.565Z,20.14
2018-05-27T13:11:52.316Z,20.35
2018-05-27T13:14:18.064Z,21.14
2018-05-27T13:16:43.974Z,21.02
2018-05-27T13:19:09.547Z,20.83
2018-05-27T13:21:35.308Z,21.10
2018-05-27T13:24:01.462Z,20.45
2018-05-27T13:26:27.970Z,20.26
2018-05-27T13:28:53.751Z,21.09
2018-05-27T13:31:19.502Z,20.76
2018-05-27T13:33:45.868Z,21.38
2018-05-27T13:36:11.850Z,20.34
2018-05-27T13:38:37.593Z,20.16
2018-05-27T13:41:03.344Z,20.04
2018-05-27T13:43:29.090Z,19.56
2018-05-27T13:45:54.838Z,19.52
2018-05-27T13:48:20.589Z,20.60
2018-05-27T13:50:46.364Z,19.77
2018-05-27T13:53:19.139Z,20.68
2018-05-27T13:55:44.875Z,19.77
2018-05-27T13:58:10.640Z,20.32
2018-05-27T14:00:36.380Z,20.58
2018-05-27T14:03:02.131Z,19.89
2018-05-27T14:05:27.876Z,20.11
2018-05-27T14:07:53.631Z,20.43
2018-05-27T14:10:19.405Z,21.46
2018-05-27T14:12:45.127Z,21.23
2018-05-27T14:15:10.894Z,20.74
2018-05-27T14:17:36.644Z,20.84
2018-05-27T14:20:02.376Z,21.01
2018-05-27T14:22:28.107Z,21.33
2018-05-27T14:24:53.836Z,21.61
2018-05-27T14:27:19.596Z,20.75
2018-05-27T14:29:45.334Z,20.37
2018-05-27T14:32:11.084Z,20.67
2018-05-27T14:34:36.821Z,20.47
2018-05-27T14:37:02.584Z,20.97
2018-05-27T14:39:28.332Z,20.99
2018-05-27T14:41:54.095Z,20.60
2018-05-27T14:44:19.842Z,20.79
2018-05-27T14:46:45.609Z,20.91
2018-05-27T14:49:11.348Z,20.99
2018-05-27T14:51:37.116Z,20.52
2018-05-27T14:54:03.957Z,20.66
2018-05-27T14:56:29.704Z,20.75
2018-05-27T14:58:55.446Z,20.48
2018-05-27T15:01:21.216Z,20.96
2018-05-27T15:03:46.944Z,20.87
2018-05-27T15:06:12.675Z,20.74
2018-05-27T15:08:38.423Z,20.86
2018-05-27T15:11:04.143Z,21.11
2018-05-27T15:13:29.879Z,20.83
2018-05-27T15:15:55.599Z,20.93
2018-05-27T15:18:21.357Z,21.08
2018-05-27T15:20:47.068Z,21.16
2018-05-27T15:23:12.800Z,21.08
2018-05-27T15:25:38.535Z,20.84
2018-05-27T15:28:04.273Z,20.96
2018-05-27T15:30:29.998Z,21.00
2018-05-27T15:32:55.736Z,20.86
2018-05-27T15:35:21.464Z,20.68
2018-05-27T15:37:47.182Z,20.96
2018-05-27T15:40:12.915Z,20.90
2018-05-27T15:42:38.655Z,20.82
2018-05-27T15:45:04.375Z,20.64
2018-05-27T15:47:30.107Z,20.82
2018-05-27T15:49:55.836Z,20.60
2018-05-27T15:52:21.570Z,20.67
2018-05-27T15:54:47.292Z,20.68
2018-05-27T15:57:13.052Z,20.65
2018-05-27T15:59:38.768Z,20.76
2018-05-27T16:02:04.513Z,20.49
2018-05-27T16:04:30.247Z,20.67
2018-05-27T16:06:55.993Z,20.80
2018-05-27T16:09:21.712Z,20.66
2018-05-27T16:11:47.460Z,20.42
2018-05-27T16:14:13.180Z,20.76
2018-05-27T16:16:38.910Z,20.37
2018-05-27T16:19:04.659Z,20.53
2018-05-27T16:21:30.377Z,20.47
2018-05-27T16:23:56.115Z,20.09
2018-05-27T16:26:21.835Z,20.20
2018-05-27T16:28:47.633Z,20.33
2018-05-27T16:31:13.348Z,20.28
2018-05-27T16:33:39.083Z,19.97
2018-05-27T16:36:04.815Z,19.93
2018-05-27T16:38:30.543Z,20.08
2018-05-27T16:40:56.260Z,19.83
2018-05-27T16:43:22.013Z,19.98
2018-05-27T16:45:47.799Z,19.77
2018-05-27T16:48:13.485Z,20.05
2018-05-27T16:50:39.205Z,19.72
2018-05-27T16:53:04.941Z,19.60
2018-05-27T16:55:30.705Z,19.98
2018-05-27T16:57:56.445Z,19.50
2018-05-27T17:00:22.174Z,19.77
2018-05-27T17:02:47.915Z,19.39
2018-05-27T17:05:13.650Z,19.49
2018-05-27T17:07:39.390Z,19.58
2018-05-27T17:10:05.123Z,19.45
2018-05-27T17:12:30.867Z,19.66
2018-05-27T17:14:56.592Z,19.35
2018-05-27T17:17:22.340Z,19.31
2018-05-27T17:19:48.060Z,19.54
2018-05-27T17:22:13.811Z,19.47
2018-05-27T17:24:39.556Z,19.17
2018-05-27T17:27:05.280Z,19.19
2018-05-27T17:29:31.012Z,19.13
2018-05-27T17:31:56.740Z,19.14
2018-05-27T17:34:22.496Z,18.79
2018-05-27T17:36:48.232Z,18.96
2018-05-27T17:39:13.988Z,18.75
2018-05-27T17:41:40.956Z,18.79
2018-05-27T17:44:06.738Z,18.75
2018-05-27T17:46:32.481Z,18.54
2018-05-27T17:48:58.231Z,18.69
2018-05-27T17:51:23.964Z,18.48
2018-05-27T17:53:49.888Z,18.49
2018-05-27T17:56:15.635Z,18.62
2018-05-27T17:58:41.372Z,18.61
2018-05-27T18:01:07.197Z,18.45
2018-05-27T18:03:33.314Z,18.43
2018-05-27T18:05:59.223Z,18.50
2018-05-27T18:08:24.992Z,18.39
2018-05-27T18:10:50.799Z,18.40
2018-05-27T18:13:16.550Z,18.51
2018-05-27T18:15:42.333Z,18.39
2018-05-27T18:18:08.095Z,18.38
2018-05-27T18:20:33.807Z,18.35
2018-05-27T18:22:59.556Z,18.15
2018-05-27T18:25:25.292Z,18.06
2018-05-27T18:27:51.041Z,18.08
2018-05-27T18:30:16.760Z,17.98
2018-05-27T18:32:42.496Z,17.83
2018-05-27T18:35:08.219Z,17.61
2018-05-27T18:37:33.959Z,17.62
2018-05-27T18:39:59.684Z,17.46
2018-05-27T18:42:25.425Z,17.44
2018-05-27T18:44:51.168Z,17.45
2018-05-27T18:47:16.899Z,17.46
2018-05-27T18:49:42.648Z,17.38
2018-05-27T18:52:08.376Z,17.25
2018-05-27T18:54:34.116Z,17.05
2018-05-27T18:56:59.855Z,17.08
2018-05-27T18:59:25.595Z,16.79
2018-05-27T19:01:51.321Z,16.91
2018-05-27T19:04:17.088Z,16.90
2018-05-27T19:06:42.789Z,16.82
2018-05-27T19:09:08.543Z,16.92
2018-05-27T19:11:34.408Z,16.95
2018-05-27T19:14:00.165Z,16.88
2018-05-27T19:16:25.885Z,16.96
2018-05-27T19:18:51.636Z,17.01
2018-05-27T19:21:17.364Z,16.88
2018-05-27T19:23:43.113Z,16.83
2018-05-27T19:26:08.874Z,16.67
2018-05-27T19:28:34.596Z,16.62
2018-05-27T19:31:00.332Z,16.70
2018-05-27T19:33:26.073Z,16.68
2018-05-27T19:35:51.794Z,16.68
2018-05-27T19:38:17.533Z,16.57
2018-05-27T19:40:43.276Z,16.68
2018-05-27T19:43:09.007Z,16.68
2018-05-27T19:45:34.737Z,16.72
2018-05-27T19:48:00.524Z,16.81
2018-05-27T19:50:26.252Z,16.80
2018-05-27T19:52:51.995Z,16.69
2018-05-27T19:55:17.720Z,16.71
2018-05-27T19:57:43.556Z,16.66
2018-05-27T20:00:09.300Z,16.58
2018-05-27T20:02:35.040Z,16.46
2018-05-27T20:05:00.784Z,16.41
2018-05-27T20:07:26.524Z,16.40
2018-05-27T20:09:52.302Z,16.31
2018-05-27T20:12:17.999Z,16.15
2018-05-27T20:14:43.749Z,16.09
2018-05-27T20:17:09.484Z,16.08
2018-05-27T20:19:35.221Z,15.98
2018-05-27T20:22:00.941Z,15.90
2018-05-27T20:24:26.692Z,16.04
2018-05-27T20:26:52.421Z,16.04
2018-05-27T20:29:18.173Z,15.85
2018-05-27T20:31:43.900Z,15.77
2018-05-27T20:34:09.654Z,15.80
2018-05-27T20:36:35.401Z,15.73
2018-05-27T20:39:01.135Z,15.69
2018-05-27T20:41:26.875Z,15.78
2018-05-27T20:43:52.604Z,15.90
2018-05-27T20:46:18.357Z,15.93
2018-05-27T20:48:44.075Z,15.89
2018-05-27T20:51:09.856Z,15.83
2018-05-27T20:53:35.580Z,15.79
2018-05-27T20:56:01.328Z,15.64
2018-05-27T20:58:27.061Z,15.59
2018-05-27T21:00:52.833Z,15.54
2018-05-27T21:03:18.564Z,15.43
2018-05-27T21:05:44.311Z,15.42
2018-05-27T21:08:10.380Z,15.50
2018-05-27T21:10:36.169Z,15.35
2018-05-27T21:13:01.921Z,15.39
2018-05-27T21:15:27.693Z,15.34
2018-05-27T21:17:53.425Z,15.43
2018-05-27T21:20:19.268Z,15.44
2018-05-27T21:22:46.141Z,15.40
2018-05-27T21:25:11.904Z,15.39
2018-05-27T21:27:37.634Z,15.28
2018-05-27T21:30:03.362Z,15.32
2018-05-27T21:32:29.991Z,15.18
2018-05-27T21:34:55.736Z,15.24
2018-05-27T21:37:21.451Z,15.21
2018-05-27T21:39:49.479Z,15.33
2018-05-27T21:42:15.247Z,15.39
2018-05-27T21:44:40.960Z,15.42
2018-05-27T21:47:07.962Z,15.45
2018-05-27T21:49:33.706Z,15.41
2018-05-27T21:51:59.434Z,15.46
2018-05-27T21:54:25.196Z,15.60
2018-05-27T21:56:50.899Z,15.59
2018-05-27T21:59:16.620Z,15.61
2018-05-27T22:01:42.363Z,15.55
2018-05-27T22:04:08.219Z,15.56
2018-05-27T22:06:33.977Z,15.62
2018-05-27T22:08:59.697Z,15.54
2018-05-27T22:11:26.926Z,15.54
2018-05-27T22:13:52.688Z,15.51
2018-05-27T22:16:18.424Z,15.48
2018-05-27T22:18:44.148Z,15.51
2018-05-27T22:21:09.878Z,15.55
2018-05-27T22:23:35.599Z,15.62
2018-05-27T22:26:01.336Z,15.61
2018-05-27T22:28:27.053Z,15.64
2018-05-27T22:30:52.795Z,15.67
2018-05-27T22:33:18.523Z,15.68
2018-05-27T22:35:44.259Z,15.78
2018-05-27T22:38:09.980Z,15.76
2018-05-27T22:40:35.709Z,15.81
2018-05-27T22:43:01.444Z,15.89
2018-05-27T22:45:27.169Z,15.90
2018-05-27T22:47:52.908Z,15.90
2018-05-27T22:50:18.623Z,16.00
2018-05-27T22:52:44.361Z,15.97
2018-05-27T22:55:10.088Z,15.98
2018-05-27T22:57:35.842Z,16.05
2018-05-27T23:00:01.569Z,16.08
2018-05-27T23:02:27.304Z,16.09
2018-05-27T23:04:53.032Z,16.15
2018-05-27T23:07:18.764Z,16.21
2018-05-27T23:09:44.493Z,16.24
2018-05-27T23:12:10.233Z,16.25
2018-05-27T23:14:35.960Z,16.27
2018-05-27T23:17:01.696Z,16.32
2018-05-27T23:19:27.436Z,16.27
2018-05-27T23:21:53.165Z,16.32
2018-05-27T23:24:18.924Z,16.37
2018-05-27T23:26:44.721Z,16.37
2018-05-27T23:29:10.460Z,16.33
2018-05-27T23:31:36.192Z,16.36
2018-05-27T23:34:01.928Z,16.37
2018-05-27T23:36:27.664Z,16.40
2018-05-27T23:38:53.401Z,16.39
2018-05-27T23:41:19.160Z,16.39
2018-05-27T23:43:44.887Z,16.49
2018-05-27T23:46:10.616Z,16.51
2018-05-27T23:48:36.362Z,16.44
2018-05-27T23:51:02.093Z,16.49
2018-05-27T23:53:27.835Z,16.45
2018-05-27T23:55:53.551Z,16.40
2018-05-27T23:58:19.304Z,16.44
